Map

Track Data

SID SEASON NUMBER BASIN SUBBASIN NAME ISO_TIME NATURE LAT LON WMO_WIND WMO_PRES WMO_AGENCY TRACK_TYPE DIST2LAND LANDFALL IFLAG USA_AGENCY USA_ATCF_ID USA_LAT USA_LON USA_RECORD USA_STATUS USA_WIND USA_PRES USA_SSHS USA_R34_NE USA_R34_SE USA_R34_SW USA_R34_NW USA_R50_NE USA_R50_SE USA_R50_SW USA_R50_NW USA_R64_NE USA_R64_SE USA_R64_SW USA_R64_NW USA_POCI USA_ROCI USA_RMW USA_EYE TOKYO_LAT TOKYO_LON TOKYO_GRADE TOKYO_WIND TOKYO_PRES TOKYO_R50_DIR TOKYO_R50_LONG TOKYO_R50_SHORT TOKYO_R30_DIR TOKYO_R30_LONG TOKYO_R30_SHORT TOKYO_LAND CMA_LAT CMA_LON CMA_CAT CMA_WIND CMA_PRES HKO_LAT HKO_LON HKO_CAT HKO_WIND HKO_PRES NEWDELHI_LAT NEWDELHI_LON NEWDELHI_GRADE NEWDELHI_WIND NEWDELHI_PRES NEWDELHI_CI NEWDELHI_DP NEWDELHI_POCI REUNION_LAT REUNION_LON REUNION_TYPE REUNION_WIND REUNION_PRES REUNION_TNUM REUNION_CI REUNION_RMW REUNION_R34_NE REUNION_R34_SE REUNION_R34_SW REUNION_R34_NW REUNION_R50_NE REUNION_R50_SE REUNION_R50_SW REUNION_R50_NW REUNION_R64_NE REUNION_R64_SE REUNION_R64_SW REUNION_R64_NW BOM_LAT BOM_LON BOM_TYPE BOM_WIND BOM_PRES BOM_TNUM BOM_CI BOM_RMW BOM_R34_NE BOM_R34_SE BOM_R34_SW BOM_R34_NW BOM_R50_NE BOM_R50_SE BOM_R50_SW BOM_R50_NW BOM_R64_NE BOM_R64_SE BOM_R64_SW BOM_R64_NW BOM_ROCI BOM_POCI BOM_EYE BOM_POS_METHOD BOM_PRES_METHOD NADI_LAT NADI_LON NADI_CAT NADI_WIND NADI_PRES WELLINGTON_LAT WELLINGTON_LON WELLINGTON_WIND WELLINGTON_PRES DS824_LAT DS824_LON DS824_STAGE DS824_WIND DS824_PRES TD9636_LAT TD9636_LON TD9636_STAGE TD9636_WIND TD9636_PRES TD9635_LAT TD9635_LON TD9635_WIND TD9635_PRES TD9635_ROCI NEUMANN_LAT NEUMANN_LON NEUMANN_CLASS NEUMANN_WIND NEUMANN_PRES MLC_LAT MLC_LON MLC_CLASS MLC_WIND MLC_PRES USA_GUST BOM_GUST BOM_GUST_PER REUNION_GUST REUNION_GUST_PER USA_SEAHGT USA_SEARAD_NE USA_SEARAD_SE USA_SEARAD_SW USA_SEARAD_NW STORM_SPEED STORM_DIR
1931265N18088 1931 41 NI BB NOT_NAMED 1931-09-22 00:00:00 TS 18.0000 88.0000 main 279 279 _________O____ -1 18.0000 88.0000 TC 30 0 0
1931265N18088 1931 41 NI BB NOT_NAMED 1931-09-22 03:00:00 TS 18.0000 88.0000 main 279 279 _________PO___ -1 18.0000 88.0000 TC 30 18.0000 88.0000 1 0 0
1931265N18088 1931 41 NI BB NOT_NAMED 1931-09-22 06:00:00 TS 17.9994 87.9938 main 279 279 _________OP___ -1 18.0000 88.0000 TC 30 17.9985 87.9844 1 0 0
1931265N18088 1931 41 NI BB NOT_NAMED 1931-09-22 09:00:00 TS 17.9990 87.9893 main 279 279 _________PP___ -1 18.0000 88.0000 TC 30 17.9976 87.9750 1 0 0
1931265N18088 1931 41 NI BB NOT_NAMED 1931-09-22 12:00:00 TS 17.9989 87.9891 main 279 279 _________OP___ -1 18.0000 88.0000 TC 30 17.9979 87.9781 1 0 0
1931265N18088 1931 41 NI BB NOT_NAMED 1931-09-22 15:00:00 TS 18.0000 88.0000 main 279 279 _________PO___ -1 18.0000 88.0000 TC 30 18.0000 88.0000 1 0 86
1931265N18088 1931 41 NI BB NOT_NAMED 1931-09-22 18:00:00 TS 18.0020 88.0203 main 279 279 _________OP___ -1 18.0000 88.0000 TC 30 18.0040 88.0406 1 1 86
1931265N18088 1931 41 NI BB NOT_NAMED 1931-09-22 21:00:00 TS 18.0036 88.0525 main 286 279 _________PP___ -1 18.0000 88.0300 TC 30 18.0073 88.0750 1 0 0
1931265N18088 1931 41 NI BB NOT_NAMED 1931-09-23 00:00:00 TS 18.0035 88.0360 main 279 273 _________OP___ -1 18.0000 88.0000 TC 30 18.0070 88.0719 1 1 270
1931265N18088 1931 41 NI BB NOT_NAMED 1931-09-23 03:00:00 TS 18.0037 87.9225 main 273 262 _________PO___ -1 18.0075 87.8450 TC 30 18.0000 88.0000 1 3 267
1931265N18088 1931 41 NI BB NOT_NAMED 1931-09-23 06:00:00 TS 17.9891 87.7109 main 262 251 _________OP___ -1 18.0000 87.6000 TC 30 17.9783 87.8218 1 5 263
1931265N18088 1931 41 NI BB NOT_NAMED 1931-09-23 09:00:00 TS 17.9501 87.4411 main 247 247 _________PP___ -1 17.9500 87.3074 TC 30 17.9502 87.5749 1 5 262
1931265N18088 1931 41 NI BB NOT_NAMED 1931-09-23 12:00:00 TS 17.9110 87.1453 main 246 239 _________OP___ -1 17.9000 87.0000 TC 30 17.9220 87.2905 1 5 264
1931265N18088 1931 41 NI BB NOT_NAMED 1931-09-23 15:00:00 TS 17.8962 86.8713 main 239 228 _________PO___ -1 17.8924 86.7425 TC 30 17.9000 87.0000 1 5 269
1931265N18088 1931 41 NI BB NOT_NAMED 1931-09-23 18:00:00 TS 17.8984 86.6210 main 228 215 _________OP___ -1 17.9000 86.5000 TC 30 17.8968 86.7420 1 5 270
1931265N18088 1931 41 NI BB NOT_NAMED 1931-09-23 21:00:00 TS 17.9000 86.3638 main 215 187 _________PP___ -1 17.9000 86.2425 TC 30 17.9000 86.4851 1 5 270
1931265N18088 1931 41 NI BB NOT_NAMED 1931-09-24 00:00:00 TS 17.9016 86.1179 main 187 170 _________OP___ -1 17.9000 86.0000 TC 30 17.9031 86.2357 1 4 270
1931265N18088 1931 41 NI BB NOT_NAMED 1931-09-24 03:00:00 TS 17.9037 85.8963 main 170 153 _________PO___ -1 17.9075 85.7925 TC 30 17.9000 86.0000 1 4 269
1931265N18088 1931 41 NI BB NOT_NAMED 1931-09-24 06:00:00 TS 17.8911 85.6867 main 153 138 _________OP___ -1 17.9000 85.6000 TC 30 17.8821 85.7734 1 4 263
1931265N18088 1931 41 NI BB NOT_NAMED 1931-09-24 09:00:00 TS 17.8537 85.4775 main 138 130 _________PP___ -1 17.8500 85.3925 TC 30 17.8574 85.5625 1 4 259
1931265N18088 1931 41 NI BB NOT_NAMED 1931-09-24 12:00:00 TS 17.8145 85.2851 main 130 115 _________OP___ -1 17.8000 85.2000 TC 30 17.8290 85.3703 1 3 261
1931265N18088 1931 41 NI BB NOT_NAMED 1931-09-24 15:00:00 TS 17.8000 85.1175 main 115 107 _________PO___ -1 17.8000 85.0350 TC 30 17.8000 85.2000 1 3 262
1931265N18088 1931 41 NI BB NOT_NAMED 1931-09-24 18:00:00 TS 17.7771 85.0051 main 107 107 _________OP___ -1 17.8000 84.9000 TC 30 17.7541 85.1101 1 2 246
1931265N18088 1931 41 NI BB NOT_NAMED 1931-09-24 21:00:00 TS 17.7269 84.9423 main 108 99 _________PP___ -1 17.7423 84.8524 TC 30 17.7116 85.0321 1 2 246
1931265N18088 1931 41 NI BB NOT_NAMED 1931-09-25 00:00:00 TS 17.6941 84.8065 main 99 79 _________OP___ -1 17.7000 84.7000 TC 30 17.6883 84.9131 1 4 268
1931265N18088 1931 41 NI BB NOT_NAMED 1931-09-25 03:00:00 TS 17.7101 84.4762 main 79 45 _________PO___ -1 17.7203 84.2524 TC 30 17.7000 84.7000 1 8 275
1931265N18088 1931 41 NI BB NOT_NAMED 1931-09-25 06:00:00 TS 17.7641 84.0065 main 45 15 _________OP___ -1 17.8000 83.7000 TC 30 17.7282 84.3131 1 9 279
1931265N18088 1931 41 NI BB NOT_NAMED 1931-09-25 09:00:00 TS 17.8542 83.5371 main 0 0 _________PP___ -1 17.9123 83.2424 TC 30 17.7960 83.8319 1 9 285
1931265N18088 1931 41 NI BB NOT_NAMED 1931-09-25 12:00:00 TS 18.0078 83.0549 main 0 0 _________OP___ -1 18.1000 82.8000 TC 30 17.9157 83.3098 1 10 292
1931265N18088 1931 41 NI BB NOT_NAMED 1931-09-25 15:00:00 TS 18.2350 82.5675 main 0 0 _________PO___ -1 18.3700 82.3351 TC 30 18.1000 82.8000 1 10 301
1931265N18088 1931 41 NI BB NOT_NAMED 1931-09-25 18:00:00 TS 18.5464 82.1135 main 0 0 _________OP___ -1 18.7000 81.9000 TC 30 18.3929 82.3269 1 11 309
1931265N18088 1931 41 NI BB NOT_NAMED 1931-09-25 21:00:00 TS 18.9076 81.6860 main 0 0 _________PP___ -1 19.0725 81.4902 TC 30 18.7427 81.8818 1 10 314
1931265N18088 1931 41 NI BB NOT_NAMED 1931-09-26 00:00:00 TS 19.2481 81.3478 main 0 0 _________OP___ -1 19.4000 81.2000 TC 30 19.0961 81.4956 1 8 320
1931265N18088 1931 41 NI BB NOT_NAMED 1931-09-26 03:00:00 TS 19.4937 81.1561 main 0 0 _________PO___ -1 19.5874 81.1122 TC 30 19.4000 81.2000 1 5 328
1931265N18088 1931 41 NI BB NOT_NAMED 1931-09-26 06:00:00 TS 19.6387 81.0936 main 0 0 _________OP___ -1 19.7000 81.1000 TC 30 19.5775 81.0871 1 3 339
1931265N18088 1931 41 NI BB NOT_NAMED 1931-09-26 09:00:00 TS 19.7468 81.0541 main 0 0 _________PP___ -1 19.7923 81.0523 TC 30 19.7012 81.0558 1 2 330
1931265N18088 1931 41 NI BB NOT_NAMED 1931-09-26 12:00:00 TS 19.8497 80.9608 main 0 0 _________OP___ -1 19.9000 80.9000 TC 30 19.7993 81.0217 1 4 309
1931265N18088 1931 41 NI BB NOT_NAMED 1931-09-26 15:00:00 TS 20.0000 80.7264 main 0 0 _________PO___ -1 20.1001 80.5527 TC 30 19.9000 80.9000 1 6 299
1931265N18088 1931 41 NI BB NOT_NAMED 1931-09-26 18:00:00 TS 20.1429 80.4012 main 0 0 _________OP___ -1 20.3000 80.1000 TC 30 20.0251 80.6271 1 7 292
1931265N18088 1931 41 NI BB NOT_NAMED 1931-09-26 21:00:00 TS 20.2734 79.9925 main 0 0 _________PP___ -1 20.4251 79.6449 TC 30 20.1722 80.2243 1 8 287
1931265N18088 1931 41 NI BB NOT_NAMED 1931-09-27 00:00:00 TS 20.3888 79.5562 main 0 0 _________OP___ -1 20.5000 79.2000 TC 30 20.3332 79.7343 1 8 287
1931265N18088 1931 41 NI BB NOT_NAMED 1931-09-27 03:00:00 NR 20.5000 79.2000 main 0 __________O___ -1 TC 20.5000 79.2000 1 7 288

About IBTrACS Database

This database is a web-friendly format of International Best Track Archive for Climate Stewardship (IBTrACS), a global best track data archive curated by NOAA dating back to 1842.

Updated: 2021-10-08